createdAt,value
2023-05-15T00:00:39.670Z,50.92
2023-05-15T00:03:07.467Z,49.85
2023-05-15T00:05:34.937Z,51.13
2023-05-15T00:08:02.238Z,49.63
2023-05-15T00:10:31.281Z,48.03
2023-05-15T00:13:02.268Z,48.65
2023-05-15T00:15:30.594Z,47.72
2023-05-15T00:17:57.964Z,48.08
2023-05-15T00:20:25.270Z,51.13
2023-05-15T00:22:52.656Z,48.67
2023-05-15T00:25:19.880Z,49.90
2023-05-15T00:27:47.372Z,44.72
2023-05-15T00:30:14.853Z,49.33
2023-05-15T00:32:42.162Z,47.25
2023-05-15T00:35:09.644Z,48.38
2023-05-15T00:37:36.907Z,53.35
2023-05-15T00:40:04.816Z,48.33
2023-05-15T00:42:32.716Z,47.90
2023-05-15T00:45:01.956Z,49.17
2023-05-15T00:49:56.428Z,48.42
2023-05-15T00:52:23.829Z,44.95
2023-05-15T00:54:51.243Z,46.42
2023-05-15T00:57:18.916Z,46.38
2023-05-15T00:59:46.477Z,49.47
2023-05-15T01:02:21.449Z,48.13
2023-05-15T01:04:49.794Z,52.38
2023-05-15T01:07:18.666Z,50.97
2023-05-15T01:09:46.914Z,50.28
2023-05-15T01:12:16.852Z,52.53
2023-05-15T01:14:44.320Z,52.10
2023-05-15T01:17:11.695Z,47.53
2023-05-15T01:19:39.151Z,54.08
2023-05-15T01:22:06.489Z,46.58
2023-05-15T01:24:33.712Z,51.90
2023-05-15T01:27:03.930Z,52.58
2023-05-15T01:29:42.057Z,46.72
2023-05-15T01:32:35.769Z,50.30
2023-05-15T01:35:19.255Z,49.22
2023-05-15T01:37:50.104Z,48.65
2023-05-15T01:40:19.010Z,44.78
2023-05-15T01:42:52.148Z,46.25
2023-05-15T01:45:20.531Z,45.90
2023-05-15T01:47:49.716Z,43.38
2023-05-15T01:50:18.266Z,47.08
2023-05-15T01:52:47.373Z,45.55
2023-05-15T01:55:16.208Z,41.53
2023-05-15T01:57:43.869Z,42.17
2023-05-15T02:00:13.951Z,38.92
2023-05-15T02:02:42.258Z,42.83
2023-05-15T02:05:10.395Z,39.72
2023-05-15T02:07:38.148Z,39.05
2023-05-15T02:10:05.859Z,42.47
2023-05-15T02:12:34.085Z,38.55
2023-05-15T02:15:04.192Z,33.63
2023-05-15T02:17:32.234Z,44.63
2023-05-15T02:19:59.630Z,36.78
2023-05-15T02:22:26.904Z,35.05
2023-05-15T02:24:54.250Z,36.90
2023-05-15T02:27:26.745Z,43.05
2023-05-15T02:30:12.825Z,40.80
2023-05-15T02:32:55.513Z,33.88
2023-05-15T02:35:28.509Z,38.50
2023-05-15T02:37:57.392Z,40.50
2023-05-15T02:40:26.674Z,36.25
2023-05-15T02:42:54.444Z,31.08
2023-05-15T02:45:23.026Z,35.30
2023-05-15T02:50:19.178Z,34.80
2023-05-15T02:52:46.533Z,35.85
2023-05-15T02:55:13.777Z,31.38
2023-05-15T02:57:40.989Z,34.35
2023-05-15T03:00:11.826Z,34.38
2023-05-15T03:02:39.557Z,43.20
2023-05-15T03:05:07.112Z,34.15
2023-05-15T03:07:34.377Z,32.88
2023-05-15T03:10:01.658Z,35.13
2023-05-15T03:12:28.998Z,35.78
2023-05-15T03:14:56.546Z,32.30
2023-05-15T03:17:23.787Z,31.58
2023-05-15T03:19:51.132Z,33.13
2023-05-15T03:22:18.443Z,33.15
2023-05-15T03:24:46.150Z,30.45
2023-05-15T03:27:13.408Z,33.00
2023-05-15T03:29:40.894Z,32.90
2023-05-15T03:32:08.121Z,34.67
2023-05-15T03:34:35.608Z,34.78
2023-05-15T03:37:02.790Z,33.40
2023-05-15T03:39:30.082Z,30.30
2023-05-15T03:41:57.317Z,28.70
2023-05-15T03:44:24.652Z,29.48
2023-05-15T03:46:51.970Z,29.33
2023-05-15T03:49:19.262Z,31.02
2023-05-15T03:51:46.561Z,26.38
2023-05-15T03:54:14.318Z,29.98
2023-05-15T03:56:41.766Z,29.38
2023-05-15T03:59:09.222Z,29.67
2023-05-15T04:01:46.643Z,32.28
2023-05-15T04:04:22.871Z,35.85
2023-05-15T04:06:51.306Z,49.00
2023-05-15T04:09:18.599Z,48.88
2023-05-15T04:11:46.733Z,54.00
2023-05-15T04:14:14.205Z,50.35
2023-05-15T04:16:41.523Z,54.05
2023-05-15T04:19:08.859Z,54.33
2023-05-15T04:21:36.184Z,51.97
2023-05-15T04:24:03.455Z,55.97
2023-05-15T04:26:31.552Z,57.67
2023-05-15T04:29:03.859Z,60.75
2023-05-15T04:31:32.150Z,53.97
2023-05-15T04:33:59.508Z,60.90
2023-05-15T04:36:26.825Z,60.25
2023-05-15T04:38:54.037Z,61.65
2023-05-15T04:41:21.322Z,56.95
2023-05-15T04:43:48.534Z,56.35
2023-05-15T04:46:16.253Z,60.53
2023-05-15T04:48:43.933Z,53.97
2023-05-15T04:51:11.972Z,51.60
2023-05-15T04:53:39.221Z,58.13
2023-05-15T04:56:06.662Z,56.60
2023-05-15T04:58:34.048Z,63.78
2023-05-15T05:01:03.628Z,67.15
2023-05-15T05:03:31.346Z,69.75
2023-05-15T05:05:58.640Z,68.97
2023-05-15T05:08:25.979Z,66.78
2023-05-15T05:10:57.397Z,68.90
2023-05-15T05:13:24.658Z,65.32
2023-05-15T05:15:51.940Z,68.53
2023-05-15T05:18:19.250Z,62.97
2023-05-15T05:20:46.537Z,62.42
2023-05-15T05:23:18.155Z,67.70
2023-05-15T05:25:45.360Z,58.13
2023-05-15T05:28:12.565Z,54.47
2023-05-15T05:30:39.768Z,58.65
2023-05-15T05:33:07.762Z,49.28
2023-05-15T05:35:35.161Z,46.03
2023-05-15T05:38:02.406Z,41.30
2023-05-15T05:40:29.708Z,39.53
2023-05-15T05:43:00.522Z,37.63
2023-05-15T05:45:27.896Z,35.90
2023-05-15T05:47:58.404Z,28.33
2023-05-15T05:50:25.790Z,31.33
2023-05-15T05:52:53.076Z,29.17
2023-05-15T05:55:20.444Z,28.73
2023-05-15T05:57:47.680Z,30.45
2023-05-15T06:00:15.136Z,33.15
2023-05-15T06:02:42.928Z,27.50
2023-05-15T06:05:10.380Z,26.85
2023-05-15T06:07:37.683Z,31.42
2023-05-15T06:10:05.234Z,26.52
2023-05-15T06:12:32.512Z,26.83
2023-05-15T06:14:59.780Z,27.25
2023-05-15T06:17:27.003Z,40.55
2023-05-15T06:19:55.116Z,28.17
2023-05-15T06:22:22.353Z,29.27
2023-05-15T06:24:49.680Z,27.08
2023-05-15T06:27:16.923Z,29.52
2023-05-15T06:29:44.188Z,30.35
2023-05-15T06:32:11.399Z,32.28
2023-05-15T06:34:38.628Z,30.75
2023-05-15T06:37:06.082Z,30.50
2023-05-15T06:39:33.338Z,27.83
2023-05-15T06:42:01.610Z,33.70
2023-05-15T06:44:31.481Z,35.72
2023-05-15T06:46:59.201Z,32.28
2023-05-15T06:49:28.064Z,34.63
2023-05-15T06:51:55.517Z,30.77
2023-05-15T06:54:22.759Z,35.83
2023-05-15T06:56:50.008Z,33.63
2023-05-15T06:59:17.334Z,35.92
2023-05-15T07:01:44.767Z,34.30
2023-05-15T07:04:14.789Z,34.65
2023-05-15T07:06:42.389Z,37.80
2023-05-15T07:09:09.820Z,34.40
2023-05-15T07:11:40.208Z,41.35
2023-05-15T07:14:08.548Z,41.22
2023-05-15T07:16:35.867Z,33.75
2023-05-15T07:19:03.258Z,38.40
2023-05-15T07:21:30.963Z,36.88
2023-05-15T07:23:58.166Z,36.05
2023-05-15T07:26:34.476Z,36.15
2023-05-15T07:29:06.105Z,39.08
2023-05-15T07:31:33.688Z,39.55
2023-05-15T07:34:01.053Z,38.60
2023-05-15T07:36:28.354Z,38.88
2023-05-15T07:38:55.650Z,41.95
2023-05-15T07:41:22.924Z,38.97
2023-05-15T07:43:50.207Z,38.13
2023-05-15T07:46:17.510Z,40.88
2023-05-15T07:48:44.812Z,40.78
2023-05-15T07:51:12.065Z,41.28
2023-05-15T07:53:39.377Z,38.55
2023-05-15T07:56:06.753Z,40.63
2023-05-15T07:58:37.002Z,44.65
2023-05-15T08:01:04.622Z,44.92
2023-05-15T08:03:32.242Z,40.95
2023-05-15T08:06:00.146Z,40.50
2023-05-15T08:08:27.721Z,41.58
2023-05-15T08:10:55.121Z,42.63
2023-05-15T08:13:22.610Z,41.42
2023-05-15T08:15:49.931Z,42.60
2023-05-15T08:18:17.753Z,36.47
2023-05-15T08:20:45.177Z,38.85
2023-05-15T08:23:15.466Z,39.92
2023-05-15T08:25:42.725Z,40.17
2023-05-15T08:28:11.724Z,37.72
2023-05-15T08:30:38.932Z,35.75
2023-05-15T08:33:06.288Z,36.42
2023-05-15T08:35:33.657Z,38.00
2023-05-15T08:38:01.024Z,37.72
2023-05-15T08:43:01.892Z,32.90
2023-05-15T08:45:29.388Z,34.50
2023-05-15T08:47:58.235Z,37.88
2023-05-15T08:50:26.498Z,43.00
2023-05-15T08:52:58.366Z,40.37
2023-05-15T08:55:26.179Z,43.80
2023-05-15T08:57:54.886Z,48.95
2023-05-15T09:00:22.797Z,51.13
2023-05-15T09:02:50.137Z,47.17
2023-05-15T09:05:17.518Z,50.90
2023-05-15T09:07:45.493Z,47.90
2023-05-15T09:10:13.813Z,52.45
2023-05-15T09:12:44.647Z,49.47
2023-05-15T09:15:17.726Z,51.65
2023-05-15T09:17:45.669Z,62.28
2023-05-15T09:20:25.790Z,60.35
2023-05-15T09:22:53.240Z,55.42
2023-05-15T09:25:54.015Z,58.05
2023-05-15T09:28:27.960Z,56.53
2023-05-15T09:31:00.248Z,54.67
2023-05-15T09:33:40.448Z,51.92
2023-05-15T09:36:08.364Z,66.95
2023-05-15T09:38:36.802Z,54.38
2023-05-15T09:41:08.360Z,55.03
2023-05-15T09:43:37.308Z,60.05
2023-05-15T09:46:04.923Z,58.35
2023-05-15T09:48:32.972Z,56.30
2023-05-15T09:51:01.238Z,56.10
2023-05-15T09:53:31.846Z,56.60
2023-05-15T09:55:59.286Z,62.15
2023-05-15T09:58:26.588Z,52.67
2023-05-15T10:00:53.915Z,49.47
2023-05-15T10:03:21.309Z,46.88
2023-05-15T10:05:48.774Z,45.42
2023-05-15T10:08:16.752Z,43.20
2023-05-15T10:10:44.103Z,45.55
2023-05-15T10:13:11.997Z,41.30
2023-05-15T10:15:40.502Z,41.63
2023-05-15T10:18:08.875Z,36.63
2023-05-15T10:20:36.455Z,37.00
2023-05-15T10:23:05.759Z,35.45
2023-05-15T10:25:32.991Z,39.50
2023-05-15T10:28:01.046Z,38.20
2023-05-15T10:30:29.094Z,39.38
2023-05-15T10:32:57.585Z,38.45
2023-05-15T10:35:25.613Z,47.00
2023-05-15T10:37:53.012Z,43.28
2023-05-15T10:40:20.880Z,47.75
2023-05-15T10:42:48.387Z,38.95
2023-05-15T10:45:15.741Z,37.83
2023-05-15T10:47:44.191Z,34.05
2023-05-15T10:50:13.345Z,33.40
2023-05-15T10:55:14.634Z,33.65
2023-05-15T10:57:42.006Z,25.15
2023-05-15T11:00:24.709Z,26.20
2023-05-15T11:02:54.063Z,29.83
2023-05-15T11:05:21.373Z,26.33
2023-05-15T11:08:07.555Z,24.55
2023-05-15T11:10:34.836Z,23.40
2023-05-15T11:13:02.917Z,24.38
2023-05-15T11:15:42.064Z,21.27
2023-05-15T11:18:09.660Z,20.27
2023-05-15T11:20:41.479Z,20.73
2023-05-15T11:23:08.961Z,17.67
2023-05-15T11:25:36.722Z,20.17
2023-05-15T11:28:04.966Z,18.73
2023-05-15T11:30:36.583Z,17.50
2023-05-15T11:33:08.910Z,14.82
2023-05-15T11:35:39.022Z,13.55
2023-05-15T11:38:13.456Z,15.00
2023-05-15T11:40:55.838Z,11.80
2023-05-15T11:43:24.870Z,13.80
2023-05-15T11:45:55.992Z,14.93
2023-05-15T11:48:24.613Z,10.18
2023-05-15T11:50:55.163Z,11.82
2023-05-15T11:53:23.957Z,11.05
2023-05-15T11:55:52.933Z,12.65
2023-05-15T11:58:21.386Z,15.13
2023-05-15T12:00:49.992Z,15.85
2023-05-15T12:03:18.693Z,19.48
2023-05-15T12:05:57.704Z,24.95
2023-05-15T12:08:27.590Z,21.55
2023-05-15T12:10:54.891Z,26.17
2023-05-15T12:13:22.277Z,30.00
2023-05-15T12:15:49.571Z,27.77
2023-05-15T12:18:17.008Z,23.00
2023-05-15T12:20:47.458Z,22.00
2023-05-15T12:23:18.271Z,21.30
2023-05-15T12:25:47.326Z,17.52
2023-05-15T12:30:42.649Z,12.63
2023-05-15T12:33:11.067Z,9.57
2023-05-15T12:35:42.454Z,11.15
2023-05-15T12:38:09.971Z,9.55
2023-05-15T12:40:37.556Z,8.00
2023-05-15T12:43:08.464Z,8.25
2023-05-15T12:45:37.443Z,8.65
2023-05-15T12:48:05.790Z,9.95
2023-05-15T12:50:34.045Z,24.48
2023-05-15T12:53:02.280Z,10.30
2023-05-15T12:55:33.625Z,11.60
2023-05-15T12:58:11.126Z,8.50
2023-05-15T13:00:42.169Z,7.85
2023-05-15T13:03:10.360Z,7.88
2023-05-15T13:05:38.573Z,7.83
2023-05-15T13:08:07.555Z,8.73
2023-05-15T13:13:02.240Z,11.57
2023-05-15T13:15:35.419Z,14.27
2023-05-15T13:18:02.917Z,10.25
2023-05-15T13:20:33.241Z,12.77
2023-05-15T13:23:01.488Z,18.92
2023-05-15T13:25:31.329Z,10.77
2023-05-15T13:28:00.159Z,11.98
2023-05-15T13:30:28.419Z,8.87
2023-05-15T13:32:56.114Z,13.40
2023-05-15T13:35:23.679Z,11.73
2023-05-15T13:37:51.117Z,11.95
2023-05-15T13:40:18.456Z,7.82
2023-05-15T13:42:46.199Z,8.80
2023-05-15T13:45:14.255Z,9.50
2023-05-15T13:47:41.933Z,9.30
2023-05-15T13:50:10.288Z,8.15
2023-05-15T13:52:38.050Z,7.75
2023-05-15T13:55:05.984Z,10.18
2023-05-15T13:57:33.319Z,7.68
2023-05-15T14:00:00.899Z,7.47
2023-05-15T14:02:28.799Z,9.63
2023-05-15T14:04:56.344Z,5.95
2023-05-15T14:07:24.296Z,12.25
2023-05-15T14:09:51.932Z,7.93
2023-05-15T14:12:19.375Z,8.15
2023-05-15T14:14:47.104Z,9.00
2023-05-15T14:17:15.022Z,10.88
2023-05-15T14:19:42.562Z,5.88
2023-05-15T14:22:11.492Z,5.50
2023-05-15T14:24:38.890Z,5.60
2023-05-15T14:27:06.364Z,6.15
2023-05-15T14:29:33.831Z,3.33
2023-05-15T14:32:01.585Z,4.53
2023-05-15T14:34:31.025Z,6.00
2023-05-15T14:36:58.477Z,6.88
2023-05-15T14:39:25.793Z,5.50
2023-05-15T14:41:53.239Z,7.03
2023-05-15T14:44:20.655Z,8.00
2023-05-15T14:46:48.163Z,10.68
2023-05-15T14:49:15.712Z,7.82
2023-05-15T14:51:42.994Z,7.95
2023-05-15T14:54:10.331Z,7.65
2023-05-15T14:56:37.620Z,8.32
2023-05-15T14:59:04.896Z,8.43
2023-05-15T15:01:32.462Z,9.20
2023-05-15T15:03:59.870Z,8.65
2023-05-15T15:06:27.681Z,9.23
2023-05-15T15:08:55.020Z,6.97
2023-05-15T15:11:22.396Z,7.15
2023-05-15T15:13:49.709Z,8.10
2023-05-15T15:16:17.137Z,9.10
2023-05-15T15:18:44.863Z,12.32
2023-05-15T15:21:12.520Z,8.70
2023-05-15T15:23:39.773Z,7.25
2023-05-15T15:26:07.389Z,13.77
2023-05-15T15:28:34.759Z,10.43
2023-05-15T15:31:02.011Z,7.78
2023-05-15T15:33:29.430Z,6.47
2023-05-15T15:35:56.853Z,12.35
2023-05-15T15:38:24.204Z,7.35
2023-05-15T15:40:51.432Z,8.45
2023-05-15T15:43:18.700Z,9.07
2023-05-15T15:45:46.093Z,5.47
2023-05-15T15:48:13.480Z,12.13
2023-05-15T15:50:40.870Z,8.32
2023-05-15T15:53:08.140Z,9.30
2023-05-15T15:55:35.592Z,9.40
2023-05-15T15:58:02.862Z,18.63
2023-05-15T16:00:30.237Z,16.25
2023-05-15T16:02:57.889Z,12.55
2023-05-15T16:05:25.333Z,16.17
2023-05-15T16:07:52.706Z,12.45
2023-05-15T16:10:20.032Z,10.05
2023-05-15T16:12:47.439Z,10.73
2023-05-15T16:15:23.127Z,13.43
2023-05-15T16:17:55.040Z,15.57
2023-05-15T16:20:22.942Z,12.95
2023-05-15T16:22:50.461Z,13.25
2023-05-15T16:25:17.815Z,12.18
2023-05-15T16:27:45.121Z,15.45
2023-05-15T16:30:12.779Z,14.00
2023-05-15T16:32:40.417Z,12.50
2023-05-15T16:35:07.990Z,17.55
2023-05-15T16:37:35.381Z,13.48
2023-05-15T16:40:03.871Z,12.77
2023-05-15T16:42:35.980Z,9.85
2023-05-15T16:45:03.378Z,14.68
2023-05-15T16:47:30.764Z,14.43
2023-05-15T16:49:58.183Z,10.65
2023-05-15T16:52:25.764Z,14.15
2023-05-15T16:54:53.063Z,14.73
2023-05-15T16:57:20.615Z,16.50
2023-05-15T16:59:48.386Z,15.23
2023-05-15T17:02:15.825Z,14.73
2023-05-15T17:04:43.322Z,14.68
2023-05-15T17:07:10.688Z,17.15
2023-05-15T17:09:40.211Z,14.32
2023-05-15T17:12:07.808Z,16.92
2023-05-15T17:14:35.255Z,11.18
2023-05-15T17:17:02.522Z,11.35
2023-05-15T17:19:29.947Z,11.93
2023-05-15T17:21:57.161Z,11.20
2023-05-15T17:24:24.713Z,15.90
2023-05-15T17:26:52.285Z,18.52
2023-05-15T17:29:19.686Z,17.02
2023-05-15T17:31:47.434Z,16.95
2023-05-15T17:34:14.710Z,17.20
2023-05-15T17:36:43.664Z,13.82
2023-05-15T17:39:11.187Z,10.25
2023-05-15T17:41:38.566Z,14.77
2023-05-15T17:44:05.961Z,13.77
2023-05-15T17:46:33.480Z,14.88
2023-05-15T17:49:00.941Z,11.82
2023-05-15T17:51:28.401Z,12.23
2023-05-15T17:53:56.125Z,14.15
2023-05-15T17:56:23.474Z,7.82
2023-05-15T17:58:51.208Z,12.20
2023-05-15T18:01:19.010Z,12.23
2023-05-15T18:03:47.079Z,12.02
2023-05-15T18:06:14.782Z,8.07
2023-05-15T18:08:44.377Z,11.27
2023-05-15T18:11:21.540Z,5.82
2023-05-15T18:13:49.943Z,12.27
2023-05-15T18:16:18.280Z,6.38
2023-05-15T18:18:47.235Z,5.55
2023-05-15T18:21:15.295Z,4.53
2023-05-15T18:23:42.553Z,5.10
2023-05-15T18:26:10.195Z,4.45
2023-05-15T18:28:37.811Z,8.35
2023-05-15T18:31:05.196Z,3.22
2023-05-15T18:33:33.050Z,4.25
2023-05-15T18:36:00.546Z,8.10
2023-05-15T18:38:27.864Z,6.18
2023-05-15T18:40:55.168Z,5.93
2023-05-15T18:43:22.441Z,9.02
2023-05-15T18:45:49.717Z,5.15
2023-05-15T18:48:17.074Z,4.45
2023-05-15T18:50:44.482Z,6.72
2023-05-15T18:53:11.838Z,3.35
2023-05-15T18:55:39.383Z,5.88
2023-05-15T18:58:06.755Z,6.93
2023-05-15T19:00:38.521Z,11.18
2023-05-15T19:03:07.079Z,6.68
2023-05-15T19:05:34.555Z,11.82
2023-05-15T19:08:02.112Z,6.13
2023-05-15T19:10:30.556Z,6.40
2023-05-15T19:12:58.548Z,6.78
2023-05-15T19:15:26.627Z,6.10
2023-05-15T19:17:53.953Z,6.88
2023-05-15T19:20:21.388Z,7.20
2023-05-15T19:22:48.781Z,14.90
2023-05-15T19:25:16.108Z,11.05
2023-05-15T19:27:43.467Z,11.05
2023-05-15T19:30:10.985Z,15.93
2023-05-15T19:32:38.703Z,10.20
2023-05-15T19:35:06.443Z,14.52
2023-05-15T19:37:33.750Z,15.70
2023-05-15T19:40:01.259Z,13.90
2023-05-15T19:42:28.497Z,20.05
2023-05-15T19:44:55.893Z,13.27
2023-05-15T19:47:23.300Z,14.95
2023-05-15T19:49:50.741Z,10.07
2023-05-15T19:52:19.742Z,10.50
2023-05-15T19:54:47.182Z,16.17
2023-05-15T19:57:14.490Z,16.73
2023-05-15T19:59:41.765Z,15.23
2023-05-15T20:02:10.609Z,12.93
2023-05-15T20:04:38.118Z,21.70
2023-05-15T20:07:05.663Z,13.50
2023-05-15T20:09:33.030Z,11.65
2023-05-15T20:12:00.794Z,14.55
2023-05-15T20:14:28.086Z,12.55
2023-05-15T20:16:55.408Z,12.85
2023-05-15T20:19:23.772Z,17.85
2023-05-15T20:21:51.127Z,19.23
2023-05-15T20:24:18.912Z,12.40
2023-05-15T20:26:46.186Z,19.45
2023-05-15T20:29:13.416Z,16.15
2023-05-15T20:31:40.969Z,11.20
2023-05-15T20:34:08.661Z,15.02
2023-05-15T20:36:39.098Z,17.63
2023-05-15T20:39:07.377Z,17.10
2023-05-15T20:41:34.862Z,16.50
2023-05-15T20:44:02.228Z,17.00
2023-05-15T20:46:30.736Z,19.10
2023-05-15T20:48:58.314Z,13.40
2023-05-15T20:51:25.717Z,14.50
2023-05-15T20:53:52.949Z,17.58
2023-05-15T20:56:21.201Z,13.73
2023-05-15T20:58:48.679Z,11.10
2023-05-15T21:01:16.496Z,15.85
2023-05-15T21:03:44.361Z,17.05
2023-05-15T21:06:12.191Z,12.05
2023-05-15T21:08:39.661Z,11.95
2023-05-15T21:11:07.258Z,14.38
2023-05-15T21:13:34.914Z,17.42
2023-05-15T21:16:02.410Z,19.20
2023-05-15T21:18:29.776Z,15.85
2023-05-15T21:20:57.191Z,13.90
2023-05-15T21:23:24.414Z,12.23
2023-05-15T21:25:51.703Z,11.63
2023-05-15T21:28:19.049Z,11.73
2023-05-15T21:30:46.402Z,13.40
2023-05-15T21:33:13.739Z,15.27
2023-05-15T21:35:41.018Z,16.80
2023-05-15T21:38:08.373Z,17.98
2023-05-15T21:40:35.653Z,18.67
2023-05-15T21:43:02.947Z,16.15
2023-05-15T21:45:30.411Z,18.05
2023-05-15T21:48:00.073Z,14.30
2023-05-15T21:50:30.336Z,9.75
2023-05-15T21:53:00.109Z,13.85
2023-05-15T21:55:30.374Z,13.00
2023-05-15T21:58:00.128Z,17.15
2023-05-15T22:00:28.259Z,18.85
2023-05-15T22:02:56.084Z,15.02
2023-05-15T22:05:23.451Z,19.00
2023-05-15T22:07:52.487Z,16.60
2023-05-15T22:12:50.069Z,14.90
2023-05-15T22:15:17.368Z,14.18
2023-05-15T22:17:48.935Z,16.35
2023-05-15T22:20:20.043Z,15.73
2023-05-15T22:22:51.470Z,13.02
2023-05-15T22:25:19.021Z,17.70
2023-05-15T22:27:46.380Z,13.98
2023-05-15T22:30:13.731Z,8.85
2023-05-15T22:32:41.395Z,19.48
2023-05-15T22:35:09.103Z,15.40
2023-05-15T22:37:36.772Z,12.70
2023-05-15T22:40:04.213Z,14.18
2023-05-15T22:42:31.424Z,14.10
2023-05-15T22:44:58.676Z,22.77
2023-05-15T22:47:28.285Z,24.65
2023-05-15T22:49:55.706Z,14.18
2023-05-15T22:52:23.211Z,15.68
2023-05-15T22:54:50.660Z,12.30
2023-05-15T22:57:17.990Z,13.10
2023-05-15T22:59:45.400Z,13.15
2023-05-15T23:02:12.664Z,18.33
2023-05-15T23:04:39.982Z,11.45
2023-05-15T23:07:07.264Z,15.27
2023-05-15T23:09:34.585Z,15.90
2023-05-15T23:12:02.197Z,15.52
2023-05-15T23:14:29.738Z,11.10
2023-05-15T23:16:56.988Z,13.10
2023-05-15T23:19:24.305Z,15.45
2023-05-15T23:21:52.001Z,16.15
2023-05-15T23:24:19.279Z,16.13
2023-05-15T23:26:47.026Z,16.42
2023-05-15T23:29:14.783Z,19.10
2023-05-15T23:31:43.263Z,12.73
2023-05-15T23:34:10.581Z,16.48
2023-05-15T23:36:37.870Z,14.75
2023-05-15T23:39:05.400Z,13.45
2023-05-15T23:41:33.086Z,17.00
2023-05-15T23:44:00.715Z,11.75
2023-05-15T23:46:28.150Z,17.98
2023-05-15T23:48:55.433Z,12.07
2023-05-15T23:51:27.722Z,12.98
2023-05-15T23:53:57.981Z,11.32
2023-05-15T23:56:25.500Z,16.67
2023-05-15T23:58:52.741Z,18.65
